createdAt,value
2016-02-24T00:00:56.926Z,993.34
2016-02-24T00:01:56.928Z,993.34
2016-02-24T00:02:56.931Z,993.35
2016-02-24T00:03:56.919Z,993.31
2016-02-24T00:04:56.922Z,993.31
2016-02-24T00:05:56.924Z,993.3
2016-02-24T00:06:56.927Z,993.31
2016-02-24T00:07:56.914Z,993.32
2016-02-24T00:08:56.900Z,993.3
2016-02-24T00:09:56.903Z,993.3
2016-02-24T00:10:56.905Z,993.27
2016-02-24T00:11:56.893Z,993.29
2016-02-24T00:12:56.895Z,993.28
2016-02-24T00:13:56.883Z,993.3
2016-02-24T00:14:56.885Z,993.28
2016-02-24T00:15:56.872Z,993.34
2016-02-24T00:16:56.875Z,993.32
2016-02-24T00:17:56.878Z,993.28
2016-02-24T00:18:56.880Z,993.21
2016-02-24T00:19:56.884Z,993.21
2016-02-24T00:20:56.901Z,993.25
2016-02-24T00:21:56.857Z,993.24
2016-02-24T00:22:56.859Z,993.24
2016-02-24T00:23:56.863Z,993.25
2016-02-24T00:24:56.850Z,993.24
2016-02-24T00:25:56.853Z,993.21
2016-02-24T00:26:56.840Z,993.29
2016-02-24T00:27:56.842Z,993.28
2016-02-24T00:28:56.845Z,993.25
2016-02-24T00:29:56.832Z,993.27
2016-02-24T00:30:56.834Z,993.28
2016-02-24T00:31:56.837Z,993.27
2016-02-24T00:32:56.825Z,993.28
2016-02-24T00:33:56.827Z,993.24
2016-02-24T00:34:56.813Z,993.22
2016-02-24T00:35:56.822Z,993.27
2016-02-24T00:36:56.808Z,993.22
2016-02-24T00:37:56.811Z,993.25
2016-02-24T00:38:56.813Z,993.22
2016-02-24T00:39:56.816Z,993.26
2016-02-24T00:40:56.804Z,993.22
2016-02-24T00:41:56.806Z,993.23
2016-02-24T00:42:56.793Z,993.21
2016-02-24T00:43:56.796Z,993.29
2016-02-24T00:44:56.784Z,993.23
2016-02-24T00:45:56.787Z,993.28
2016-02-24T00:46:56.773Z,993.26
2016-02-24T00:47:56.776Z,993.24
2016-02-24T00:48:56.779Z,993.21
2016-02-24T00:49:56.765Z,993.23
2016-02-24T00:50:56.768Z,993.22
2016-02-24T00:51:56.770Z,993.26
2016-02-24T00:52:56.759Z,993.23
2016-02-24T00:53:56.776Z,993.29
2016-02-24T00:54:56.748Z,993.27
2016-02-24T00:55:56.750Z,993.27
2016-02-24T00:56:56.753Z,993.28
2016-02-24T00:57:56.739Z,993.27
2016-02-24T00:58:56.743Z,993.32
2016-02-24T00:59:56.745Z,993.3
2016-02-24T01:00:56.732Z,993.3
2016-02-24T01:01:56.736Z,993.33
2016-02-24T01:02:56.738Z,993.31
2016-02-24T01:03:56.725Z,993.35
2016-02-24T01:04:56.728Z,993.35
2016-02-24T01:05:56.747Z,993.37
2016-02-24T01:06:56.722Z,993.37
2016-02-24T01:07:56.725Z,993.37
2016-02-24T01:08:56.727Z,993.37
2016-02-24T01:09:56.715Z,993.35
2016-02-24T01:10:56.702Z,993.37
2016-02-24T01:11:56.704Z,993.4
2016-02-24T01:12:56.707Z,993.41
2016-02-24T01:13:56.709Z,993.41
2016-02-24T01:14:56.713Z,993.41
2016-02-24T01:15:56.700Z,993.4
2016-02-24T01:16:56.686Z,993.38
2016-02-24T01:17:56.689Z,993.4
2016-02-24T01:18:56.676Z,993.4
2016-02-24T01:19:56.679Z,993.39
2016-02-24T01:20:56.666Z,993.35
2016-02-24T01:21:56.669Z,993.38
2016-02-24T01:22:56.672Z,993.34
2016-02-24T01:23:56.659Z,993.38
2016-02-24T01:24:56.661Z,993.38
2016-02-24T01:25:56.664Z,993.35
2016-02-24T01:26:56.666Z,993.37
2016-02-24T01:27:56.654Z,993.32
2016-02-24T01:28:56.656Z,993.31
2016-02-24T01:29:56.659Z,993.3
2016-02-24T01:30:56.646Z,993.37
2016-02-24T01:31:56.630Z,993.31
2016-02-24T01:32:56.633Z,993.34
2016-02-24T01:33:56.636Z,993.32
2016-02-24T01:34:56.624Z,993.28
2016-02-24T01:35:56.626Z,993.26
2016-02-24T01:36:56.613Z,993.29
2016-02-24T01:37:56.615Z,993.3
2016-02-24T01:38:56.635Z,993.28
2016-02-24T01:39:56.605Z,993.28
2016-02-24T01:40:56.608Z,993.32
2016-02-24T01:41:56.610Z,993.31
2016-02-24T01:42:56.598Z,993.29
2016-02-24T01:43:56.600Z,993.29
2016-02-24T01:44:56.604Z,993.28
2016-02-24T01:45:56.590Z,993.29
2016-02-24T01:46:56.592Z,993.27
2016-02-24T01:47:56.595Z,993.32
2016-02-24T01:48:56.582Z,993.26
2016-02-24T01:49:56.570Z,993.31
2016-02-24T01:50:56.572Z,993.26
2016-02-24T01:51:56.575Z,993.28
2016-02-24T01:52:56.578Z,993.29
2016-02-24T01:53:56.565Z,993.29
2016-02-24T01:54:56.568Z,993.31
2016-02-24T01:55:56.555Z,993.31
2016-02-24T01:56:56.557Z,993.35
2016-02-24T01:57:56.561Z,993.33
2016-02-24T01:58:56.547Z,993.28
2016-02-24T01:59:56.550Z,993.3
2016-02-24T02:00:56.569Z,993.31
2016-02-24T02:01:56.539Z,993.3
2016-02-24T02:02:56.542Z,993.28
2016-02-24T02:03:56.529Z,993.31
2016-02-24T02:04:56.532Z,993.25
2016-02-24T02:05:56.534Z,993.24
2016-02-24T02:06:56.521Z,993.24
2016-02-24T02:07:56.540Z,993.26
2016-02-24T02:08:56.527Z,993.27
2016-02-24T02:09:56.514Z,993.28
2016-02-24T02:10:56.516Z,993.27
2016-02-24T02:11:56.504Z,993.26
2016-02-24T02:12:56.507Z,993.22
2016-02-24T02:13:56.510Z,993.26
2016-02-24T02:14:56.496Z,993.24
2016-02-24T02:15:56.498Z,993.29
2016-02-24T02:16:56.502Z,993.27
2016-02-24T02:17:56.489Z,993.25
2016-02-24T02:18:56.492Z,993.26
2016-02-24T02:19:56.479Z,993.28
2016-02-24T02:20:56.481Z,993.27
2016-02-24T02:21:56.484Z,993.25
2016-02-24T02:22:56.471Z,993.24
2016-02-24T02:23:56.473Z,993.26
2016-02-24T02:24:56.476Z,993.22
2016-02-24T02:25:56.478Z,993.19
2016-02-24T02:26:56.467Z,993.21
2016-02-24T02:27:56.469Z,993.23
2016-02-24T02:28:56.456Z,993.24
2016-02-24T02:29:56.459Z,993.2
2016-02-24T02:30:56.446Z,993.22
2016-02-24T02:31:56.448Z,993.21
2016-02-24T02:32:56.467Z,993.19
2016-02-24T02:33:56.454Z,993.25
2016-02-24T02:34:56.441Z,993.22
2016-02-24T02:35:56.444Z,993.22
2016-02-24T02:36:56.430Z,993.15
2016-02-24T02:37:56.433Z,993.19
2016-02-24T02:38:56.435Z,993.19
2016-02-24T02:39:56.423Z,993.14
2016-02-24T02:40:56.426Z,993.15
2016-02-24T02:41:56.429Z,993.17
2016-02-24T02:42:56.415Z,993.18
2016-02-24T02:43:56.418Z,993.18
2016-02-24T02:44:56.421Z,993.18
2016-02-24T02:45:56.407Z,993.17
2016-02-24T02:46:56.410Z,993.18
2016-02-24T02:47:56.429Z,993.15
2016-02-24T02:48:56.401Z,993.21
2016-02-24T02:49:56.403Z,993.22
2016-02-24T02:50:56.390Z,993.18
2016-02-24T02:51:56.392Z,993.17
2016-02-24T02:52:56.396Z,993.22
2016-02-24T02:53:56.382Z,993.18
2016-02-24T02:54:56.384Z,993.21
2016-02-24T02:55:56.388Z,993.25
2016-02-24T02:56:56.375Z,993.22
2016-02-24T02:57:56.378Z,993.19
2016-02-24T02:58:56.365Z,993.26
2016-02-24T02:59:56.367Z,993.21
2016-02-24T03:00:56.369Z,993.18
2016-02-24T03:01:56.372Z,993.19
2016-02-24T03:02:56.391Z,993.2
2016-02-24T03:03:56.363Z,993.2
2016-02-24T03:04:56.443Z,993.17
2016-02-24T03:05:56.352Z,993.19
2016-02-24T03:06:56.339Z,993.16
2016-02-24T03:07:56.341Z,993.19
2016-02-24T03:08:56.345Z,993.17
2016-02-24T03:09:56.332Z,993.2
2016-02-24T03:10:56.350Z,993.2
2016-02-24T03:11:56.338Z,993.23
2016-02-24T03:12:56.324Z,993.25
2016-02-24T03:13:56.327Z,993.26
2016-02-24T03:14:56.330Z,993.21
2016-02-24T03:15:56.316Z,993.21
2016-02-24T03:16:56.320Z,993.25
2016-02-24T03:17:56.323Z,993.23
2016-02-24T03:18:56.311Z,993.27
2016-02-24T03:19:56.313Z,993.23
2016-02-24T03:20:56.299Z,993.25
2016-02-24T03:21:56.303Z,993.23
2016-02-24T03:22:56.305Z,993.29
2016-02-24T03:23:56.293Z,993.25
2016-02-24T03:24:56.295Z,993.24
2016-02-24T03:25:56.298Z,993.24
2016-02-24T03:26:56.284Z,993.27
2016-02-24T03:27:56.288Z,993.26
2016-02-24T03:28:56.290Z,993.27
2016-02-24T03:29:56.277Z,993.25
2016-02-24T03:30:56.279Z,993.29
2016-02-24T03:31:56.267Z,993.3
2016-02-24T03:32:56.270Z,993.25
2016-02-24T03:33:56.272Z,993.29
2016-02-24T03:34:56.275Z,993.27
2016-02-24T03:35:56.262Z,993.28
2016-02-24T03:36:56.264Z,993.25
2016-02-24T03:37:56.251Z,993.28
2016-02-24T03:38:56.254Z,993.32
2016-02-24T03:39:56.257Z,993.31
2016-02-24T03:40:56.257Z,993.32
2016-02-24T03:41:56.248Z,993.33
2016-02-24T03:42:56.207Z,993.32
2016-02-24T03:43:56.197Z,993.3
2016-02-24T03:44:56.188Z,993.32
2016-02-24T03:45:56.164Z,993.3
2016-02-24T03:46:56.164Z,993.36
2016-02-24T03:47:56.162Z,993.37
2016-02-24T03:48:56.144Z,993.33
2016-02-24T03:49:56.143Z,993.36
2016-02-24T03:50:56.125Z,993.35
2016-02-24T03:51:56.126Z,993.33
2016-02-24T03:52:56.128Z,993.33
2016-02-24T03:53:56.113Z,993.38
2016-02-24T03:54:56.115Z,993.35
2016-02-24T03:55:56.116Z,993.29
2016-02-24T03:56:56.102Z,993.34
2016-02-24T03:57:56.105Z,993.32
2016-02-24T03:58:56.106Z,993.32
2016-02-24T03:59:56.092Z,993.35
2016-02-24T04:00:56.094Z,993.35
2016-02-24T04:01:56.082Z,993.32
2016-02-24T04:02:56.084Z,993.34
2016-02-24T04:03:56.087Z,993.28
2016-02-24T04:04:56.078Z,993.28
2016-02-24T04:05:56.082Z,993.33
2016-02-24T04:06:56.068Z,993.29
2016-02-24T04:07:56.071Z,993.29
2016-02-24T04:08:56.074Z,993.29
2016-02-24T04:09:56.076Z,993.29
2016-02-24T04:10:56.064Z,993.26
2016-02-24T04:11:56.067Z,993.31
2016-02-24T04:12:56.053Z,993.33
2016-02-24T04:13:56.056Z,993.3
2016-02-24T04:14:56.044Z,993.34
2016-02-24T04:15:56.046Z,993.32
2016-02-24T04:16:56.049Z,993.29
2016-02-24T04:17:56.036Z,993.34
2016-02-24T04:18:56.038Z,993.39
2016-02-24T04:19:56.041Z,993.43
2016-02-24T04:20:56.027Z,993.41
2016-02-24T04:21:56.031Z,993.43
2016-02-24T04:22:56.018Z,993.4
2016-02-24T04:23:56.021Z,993.38
2016-02-24T04:24:56.024Z,993.44
2016-02-24T04:25:56.026Z,993.44
2016-02-24T04:26:56.013Z,993.44
2016-02-24T04:27:56.000Z,993.49
2016-02-24T04:28:56.003Z,993.45
2016-02-24T04:29:56.005Z,993.46
2016-02-24T04:30:55.992Z,993.47
2016-02-24T04:31:55.996Z,993.49
2016-02-24T04:32:55.982Z,993.51
2016-02-24T04:33:56.001Z,993.5
2016-02-24T04:34:55.988Z,993.52
2016-02-24T04:35:55.990Z,993.5
2016-02-24T04:36:56.008Z,993.48
2016-02-24T04:37:55.981Z,993.43
2016-02-24T04:38:55.967Z,993.46
2016-02-24T04:39:55.970Z,993.42
2016-02-24T04:40:55.972Z,993.44
2016-02-24T04:41:55.975Z,993.43
2016-02-24T04:42:55.962Z,993.41
2016-02-24T04:43:55.965Z,993.47
2016-02-24T04:44:55.953Z,993.44
2016-02-24T04:45:55.955Z,993.43
2016-02-24T04:46:55.941Z,993.45
2016-02-24T04:47:55.945Z,993.41
2016-02-24T04:48:55.947Z,993.38
2016-02-24T04:49:55.934Z,993.4
2016-02-24T04:50:55.936Z,993.38
2016-02-24T04:51:55.939Z,993.39
2016-02-24T04:52:55.942Z,993.38
2016-02-24T04:53:55.917Z,993.39
2016-02-24T04:54:55.921Z,993.36
2016-02-24T04:55:55.923Z,993.38
2016-02-24T04:56:55.910Z,993.32
2016-02-24T04:57:55.913Z,993.32
2016-02-24T04:58:55.916Z,993.32
2016-02-24T04:59:55.902Z,993.3
2016-02-24T05:00:55.905Z,993.29
2016-02-24T05:01:55.908Z,993.32
2016-02-24T05:02:55.895Z,993.33
2016-02-24T05:03:55.897Z,993.33
2016-02-24T05:04:55.885Z,993.38
2016-02-24T05:05:55.888Z,993.39
2016-02-24T05:06:55.905Z,993.42
2016-02-24T05:07:55.877Z,993.41
2016-02-24T05:08:55.880Z,993.49
2016-02-24T05:09:55.866Z,993.44
2016-02-24T05:10:55.869Z,993.4
2016-02-24T05:11:55.872Z,993.46
2016-02-24T05:12:55.860Z,993.41
2016-02-24T05:13:55.862Z,993.39
2016-02-24T05:14:55.849Z,993.43
2016-02-24T05:15:55.852Z,993.43
2016-02-24T05:16:55.840Z,993.41
2016-02-24T05:17:55.842Z,993.37
2016-02-24T05:18:55.829Z,993.36
2016-02-24T05:19:55.831Z,993.34
2016-02-24T05:20:55.834Z,993.32
2016-02-24T05:21:55.820Z,993.31
2016-02-24T05:22:55.824Z,993.36
2016-02-24T05:23:55.811Z,993.32
2016-02-24T05:24:55.814Z,993.3
2016-02-24T05:25:55.817Z,993.37
2016-02-24T05:26:55.803Z,993.31
2016-02-24T05:27:55.806Z,993.28
2016-02-24T05:28:55.793Z,993.33
2016-02-24T05:29:55.795Z,993.33
2016-02-24T05:30:55.783Z,993.3
2016-02-24T05:31:55.785Z,993.28
2016-02-24T05:32:55.788Z,993.25
2016-02-24T05:33:55.791Z,993.23
2016-02-24T05:34:55.777Z,993.2
2016-02-24T05:35:55.781Z,993.22
2016-02-24T05:36:55.783Z,993.21
2016-02-24T05:37:55.754Z,993.17
2016-02-24T05:38:55.758Z,993.22
2016-02-24T05:39:55.760Z,993.21
2016-02-24T05:40:55.747Z,993.18
2016-02-24T05:41:55.749Z,993.19
2016-02-24T05:42:55.752Z,993.21
2016-02-24T05:43:55.740Z,993.17
2016-02-24T05:44:55.742Z,993.21
2016-02-24T05:45:55.730Z,993.22
2016-02-24T05:46:55.732Z,993.22
2016-02-24T05:47:55.734Z,993.19
2016-02-24T05:48:55.721Z,993.12
2016-02-24T05:49:55.724Z,993.15
2016-02-24T05:50:55.712Z,993.12
2016-02-24T05:51:55.714Z,993.14
2016-02-24T05:52:55.701Z,993.14
2016-02-24T05:53:55.704Z,993.13
2016-02-24T05:54:55.707Z,993.13
2016-02-24T05:55:55.695Z,993.13
2016-02-24T05:56:55.697Z,993.15
2016-02-24T05:57:55.700Z,993.13
2016-02-24T05:58:55.686Z,993.18
2016-02-24T05:59:55.689Z,993.1
2016-02-24T06:00:55.675Z,993.12
2016-02-24T06:01:55.678Z,993.12
2016-02-24T06:02:55.665Z,993.11
2016-02-24T06:03:55.669Z,993.12
2016-02-24T06:04:55.671Z,993.17
2016-02-24T06:05:55.658Z,993.18
2016-02-24T06:06:55.661Z,993.12
2016-02-24T06:07:55.647Z,993.14
2016-02-24T06:08:55.651Z,993.14
2016-02-24T06:09:55.654Z,993.14
2016-02-24T06:10:55.641Z,993.11
2016-02-24T06:11:55.644Z,993.22
2016-02-24T06:12:55.647Z,993.19
2016-02-24T06:13:55.634Z,993.22
2016-02-24T06:14:55.636Z,993.24
2016-02-24T06:15:55.623Z,993.3
2016-02-24T06:16:55.626Z,993.25
2016-02-24T06:17:55.613Z,993.25
2016-02-24T06:18:55.616Z,993.27
2016-02-24T06:19:55.603Z,993.24
2016-02-24T06:20:55.606Z,993.29
2016-02-24T06:21:55.593Z,993.29
2016-02-24T06:22:55.611Z,993.31
2016-02-24T06:23:55.599Z,993.26
2016-02-24T06:24:55.601Z,993.27
2016-02-24T06:25:55.588Z,993.31
2016-02-24T06:26:55.574Z,993.33
2016-02-24T06:27:55.577Z,993.33
2016-02-24T06:28:55.579Z,993.31
2016-02-24T06:29:55.567Z,993.33
2016-02-24T06:30:55.570Z,993.35
2016-02-24T06:31:55.573Z,993.38
2016-02-24T06:32:55.560Z,993.35
2016-02-24T06:33:55.562Z,993.34
2016-02-24T06:34:55.549Z,993.39
2016-02-24T06:35:55.551Z,993.39
2016-02-24T06:36:55.540Z,993.45
2016-02-24T06:37:55.542Z,993.45
2016-02-24T06:38:55.545Z,993.44
2016-02-24T06:39:55.531Z,993.45
2016-02-24T06:40:55.519Z,993.46
2016-02-24T06:41:55.522Z,993.49
2016-02-24T06:42:55.539Z,993.46
2016-02-24T06:43:55.534Z,993.45
2016-02-24T06:44:55.507Z,993.44
2016-02-24T06:45:55.494Z,993.46
2016-02-24T06:46:56.786Z,993.48
2016-02-24T06:47:55.499Z,993.46
2016-02-24T06:48:55.485Z,993.48
2016-02-24T06:49:55.488Z,993.46
2016-02-24T06:50:55.475Z,993.46
2016-02-24T06:51:55.478Z,993.44
2016-02-24T06:52:55.480Z,993.45
2016-02-24T06:53:55.468Z,993.47
2016-02-24T06:54:55.471Z,993.45
2016-02-24T06:55:55.458Z,993.47
2016-02-24T06:56:55.476Z,993.46
2016-02-24T06:57:55.462Z,993.47
2016-02-24T06:58:55.450Z,993.48
2016-02-24T06:59:55.452Z,993.47
2016-02-24T07:00:55.440Z,993.42
2016-02-24T07:01:55.458Z,993.45
2016-02-24T07:02:55.446Z,993.44
2016-02-24T07:03:55.432Z,993.5
2016-02-24T07:04:55.434Z,993.47
2016-02-24T07:05:55.438Z,993.43
2016-02-24T07:06:55.425Z,993.46
2016-02-24T07:07:55.427Z,993.46
2016-02-24T07:08:55.415Z,993.44
2016-02-24T07:09:55.422Z,993.44
2016-02-24T07:10:55.408Z,993.42
2016-02-24T07:11:55.412Z,993.46
2016-02-24T07:12:55.414Z,993.46
2016-02-24T07:13:55.402Z,993.45
2016-02-24T07:14:55.404Z,993.43
2016-02-24T07:15:55.407Z,993.46
2016-02-24T07:16:55.394Z,993.46
2016-02-24T07:17:55.396Z,993.44
2016-02-24T07:18:55.400Z,993.44
2016-02-24T07:19:55.386Z,993.46
2016-02-24T07:20:55.388Z,993.46
2016-02-24T07:21:55.376Z,993.52
2016-02-24T07:22:55.379Z,993.48
2016-02-24T07:23:55.382Z,993.54
2016-02-24T07:24:55.368Z,993.56
2016-02-24T07:25:55.371Z,993.62
2016-02-24T07:26:55.374Z,993.64
2016-02-24T07:27:55.376Z,993.67
2016-02-24T07:28:55.364Z,993.68
2016-02-24T07:29:55.351Z,993.71
2016-02-24T07:30:55.354Z,993.73
2016-02-24T07:31:55.434Z,993.75
2016-02-24T07:32:55.343Z,993.74
2016-02-24T07:33:55.346Z,993.73
2016-02-24T07:34:55.348Z,993.74
2016-02-24T07:35:55.351Z,993.83
2016-02-24T07:36:55.338Z,993.81
2016-02-24T07:37:55.325Z,993.82
2016-02-24T07:38:55.328Z,993.78
2016-02-24T07:39:55.330Z,993.84
2016-02-24T07:40:55.317Z,993.8
2016-02-24T07:41:55.320Z,993.82
2016-02-24T07:42:55.322Z,993.79
2016-02-24T07:43:55.310Z,993.84
2016-02-24T07:44:55.313Z,993.8
2016-02-24T07:45:55.316Z,993.79
2016-02-24T07:46:55.302Z,993.78
2016-02-24T07:47:55.305Z,993.8
2016-02-24T07:48:55.308Z,993.78
2016-02-24T07:49:55.295Z,993.8
2016-02-24T07:50:55.297Z,993.82
2016-02-24T07:51:55.300Z,993.83
2016-02-24T07:52:55.288Z,993.8
2016-02-24T07:53:55.306Z,993.82
2016-02-24T07:54:55.293Z,993.76
2016-02-24T07:55:55.280Z,993.77
2016-02-24T07:56:55.283Z,993.76
2016-02-24T07:57:55.285Z,993.72
2016-02-24T07:58:55.273Z,993.76
2016-02-24T07:59:55.291Z,993.75
2016-02-24T08:00:55.278Z,993.83
2016-02-24T08:01:55.281Z,993.82
2016-02-24T08:02:55.283Z,993.81
2016-02-24T08:03:55.271Z,993.81
2016-02-24T08:04:55.273Z,993.81
2016-02-24T08:05:55.275Z,993.79
2016-02-24T08:06:55.263Z,993.82
2016-02-24T08:07:55.265Z,993.79
2016-02-24T08:08:55.268Z,993.76
2016-02-24T08:09:55.270Z,993.76
2016-02-24T08:10:55.258Z,993.82
2016-02-24T08:11:55.261Z,993.78
2016-02-24T08:12:55.264Z,993.78
2016-02-24T08:13:55.266Z,993.79
2016-02-24T08:14:55.269Z,993.82
2016-02-24T08:15:55.271Z,993.75
2016-02-24T08:16:55.274Z,993.77
2016-02-24T08:17:55.260Z,993.8
2016-02-24T08:18:55.263Z,993.78
2016-02-24T08:19:55.266Z,993.76
2016-02-24T08:20:55.269Z,993.71
2016-02-24T08:21:55.271Z,993.74
2016-02-24T08:22:55.274Z,993.72
2016-02-24T08:23:55.277Z,993.74
2016-02-24T08:24:55.296Z,993.73
2016-02-24T08:25:55.298Z,993.76
2016-02-24T08:26:55.301Z,993.75
2016-02-24T08:27:55.304Z,993.75
2016-02-24T08:28:55.306Z,993.76
2016-02-24T08:29:55.310Z,993.79
2016-02-24T08:30:55.327Z,993.75
2016-02-24T08:31:55.314Z,993.75
2016-02-24T08:32:55.332Z,993.75
2016-02-24T08:33:55.335Z,993.72
2016-02-24T08:34:55.338Z,993.74
2016-02-24T08:35:55.340Z,993.72
2016-02-24T08:36:55.343Z,993.72
2016-02-24T08:37:55.346Z,993.71
2016-02-24T08:38:55.348Z,993.72
2016-02-24T08:39:55.367Z,993.73
2016-02-24T08:40:55.370Z,993.68
2016-02-24T08:41:55.372Z,993.68
2016-02-24T08:42:55.375Z,993.7
2016-02-24T08:43:55.378Z,993.7
2016-02-24T08:44:55.380Z,993.74
2016-02-24T08:45:55.383Z,993.69
2016-02-24T08:46:55.386Z,993.67
2016-02-24T08:47:55.389Z,993.61
2016-02-24T08:48:55.391Z,993.56
2016-02-24T08:49:55.410Z,993.47
2016-02-24T08:50:55.397Z,993.51
2016-02-24T08:51:55.399Z,993.49
2016-02-24T08:52:55.402Z,993.45
2016-02-24T08:53:55.405Z,993.48
2016-02-24T08:54:55.438Z,993.46
2016-02-24T08:55:55.410Z,993.47
2016-02-24T08:56:55.413Z,993.48
2016-02-24T08:57:55.432Z,993.49
2016-02-24T08:58:55.418Z,993.47
2016-02-24T08:59:55.437Z,993.47
2016-02-24T09:00:55.424Z,993.47
2016-02-24T09:01:55.426Z,993.46
2016-02-24T09:02:55.429Z,993.44
2016-02-24T09:03:55.432Z,993.51
2016-02-24T09:04:55.434Z,993.5
2016-02-24T09:05:55.421Z,993.48
2016-02-24T09:06:55.424Z,993.52
2016-02-24T09:07:55.426Z,993.51
2016-02-24T09:08:55.445Z,993.5
2016-02-24T09:09:55.432Z,993.49
2016-02-24T09:10:55.435Z,993.53
2016-02-24T09:11:55.422Z,993.53
2016-02-24T09:12:55.425Z,993.54
2016-02-24T09:13:55.428Z,993.5
2016-02-24T09:14:55.430Z,993.54
2016-02-24T09:15:55.416Z,993.51
2016-02-24T09:16:55.420Z,993.5
2016-02-24T09:17:55.422Z,993.45
2016-02-24T09:18:55.425Z,993.48
2016-02-24T09:19:55.412Z,993.46
2016-02-24T09:20:55.414Z,993.55
2016-02-24T09:21:55.417Z,993.54
2016-02-24T09:22:55.420Z,993.51
2016-02-24T09:23:55.407Z,993.54
2016-02-24T09:24:55.410Z,993.48
2016-02-24T09:25:55.412Z,993.47
2016-02-24T09:26:55.416Z,993.48
2016-02-24T09:27:55.402Z,993.46
2016-02-24T09:28:55.405Z,993.5
2016-02-24T09:29:55.408Z,993.45
2016-02-24T09:30:55.410Z,993.44
2016-02-24T09:31:55.398Z,993.43
2016-02-24T09:32:55.401Z,993.4
2016-02-24T09:33:55.403Z,993.41
2016-02-24T09:34:55.405Z,993.42
2016-02-24T09:35:55.392Z,993.41
2016-02-24T09:36:55.395Z,993.41
2016-02-24T09:37:55.398Z,993.4
2016-02-24T09:38:55.385Z,993.42
2016-02-24T09:39:55.387Z,993.42
2016-02-24T09:40:55.390Z,993.46
2016-02-24T09:41:55.377Z,993.41
2016-02-24T09:42:55.381Z,993.46
2016-02-24T09:43:55.383Z,993.45
2016-02-24T09:44:55.385Z,993.43
2016-02-24T09:45:55.373Z,993.43
2016-02-24T09:46:55.375Z,993.41
2016-02-24T09:47:55.378Z,993.38
2016-02-24T09:48:55.381Z,993.39
2016-02-24T09:49:55.367Z,993.36
2016-02-24T09:50:55.370Z,993.37
2016-02-24T09:51:55.373Z,993.35
2016-02-24T09:52:55.360Z,993.36
2016-02-24T09:53:55.363Z,993.33
2016-02-24T09:54:55.366Z,993.33
2016-02-24T09:55:55.353Z,993.35
2016-02-24T09:56:55.355Z,993.32
2016-02-24T09:57:55.358Z,993.31
2016-02-24T09:58:55.346Z,993.29
2016-02-24T09:59:55.348Z,993.28
2016-02-24T10:00:55.351Z,993.29
2016-02-24T10:01:55.337Z,993.25
2016-02-24T10:02:55.340Z,993.24
2016-02-24T10:03:55.342Z,993.21
2016-02-24T10:04:55.346Z,993.19
2016-02-24T10:05:55.332Z,993.15
2016-02-24T10:06:55.335Z,993.17
2016-02-24T10:07:55.338Z,993.16
2016-02-24T10:08:55.340Z,993.17
2016-02-24T10:09:55.343Z,993.21
2016-02-24T10:10:55.331Z,993.16
2016-02-24T10:11:55.333Z,993.15
2016-02-24T10:12:55.336Z,993.18
2016-02-24T10:13:55.354Z,993.16
2016-02-24T10:14:55.326Z,993.18
2016-02-24T10:15:55.328Z,993.12
2016-02-24T10:16:55.331Z,993.16
2016-02-24T10:17:55.318Z,993.15
2016-02-24T10:18:55.336Z,993.15
2016-02-24T10:19:55.323Z,993.14
2016-02-24T10:20:55.311Z,993.12
2016-02-24T10:21:55.313Z,993.09
2016-02-24T10:22:55.331Z,993.07
2016-02-24T10:23:55.319Z,993.06
2016-02-24T10:24:55.305Z,993.08
2016-02-24T10:25:55.308Z,993.1
2016-02-24T10:26:55.311Z,993.09
2016-02-24T10:27:55.298Z,993.09
2016-02-24T10:28:55.301Z,993.09
2016-02-24T10:29:55.304Z,993.1
2016-02-24T10:30:55.306Z,993.1
2016-02-24T10:31:55.293Z,993.1
2016-02-24T10:32:55.296Z,993.06
2016-02-24T10:33:55.298Z,993.1
2016-02-24T10:34:55.302Z,993.1
2016-02-24T10:35:55.304Z,993.06
2016-02-24T10:36:55.291Z,993.06
2016-02-24T10:37:55.293Z,993.02
2016-02-24T10:38:55.296Z,993.07
2016-02-24T10:39:55.299Z,993.09
2016-02-24T10:40:55.286Z,993.09
2016-02-24T10:41:55.289Z,993.07
2016-02-24T10:42:55.292Z,993.01
2016-02-24T10:43:55.294Z,992.98
2016-02-24T10:44:55.298Z,992.98
2016-02-24T10:45:55.284Z,993.03
2016-02-24T10:46:55.302Z,992.98
2016-02-24T10:47:55.289Z,992.9
2016-02-24T10:48:55.292Z,992.89
2016-02-24T10:49:55.294Z,992.86
2016-02-24T10:50:55.297Z,992.85
2016-02-24T10:51:55.300Z,992.85
2016-02-24T10:52:55.287Z,992.83
2016-02-24T10:53:55.290Z,992.75
2016-02-24T10:54:55.292Z,992.75
2016-02-24T10:55:55.294Z,992.74
2016-02-24T10:56:55.298Z,992.75
2016-02-24T10:57:55.300Z,992.69
2016-02-24T10:58:55.302Z,992.67
2016-02-24T10:59:55.306Z,992.68
2016-02-24T11:00:55.308Z,992.65
2016-02-24T11:01:55.296Z,992.66
2016-02-24T11:02:55.299Z,992.68
2016-02-24T11:03:55.301Z,992.68
2016-02-24T11:04:55.304Z,992.68
2016-02-24T11:05:55.307Z,992.69
2016-02-24T11:06:55.340Z,992.64
2016-02-24T11:07:55.296Z,992.63
2016-02-24T11:08:55.298Z,992.65
2016-02-24T11:09:55.317Z,992.61
2016-02-24T11:10:55.304Z,992.6
2016-02-24T11:11:55.307Z,992.61
2016-02-24T11:12:55.310Z,992.6
2016-02-24T11:13:55.313Z,992.56
2016-02-24T11:14:55.315Z,992.58
2016-02-24T11:15:55.303Z,992.52
2016-02-24T11:16:55.306Z,992.55
2016-02-24T11:17:55.292Z,992.53
2016-02-24T11:18:55.294Z,992.5
2016-02-24T11:19:55.298Z,992.52
2016-02-24T11:20:55.300Z,992.51
2016-02-24T11:21:55.302Z,992.54
2016-02-24T11:22:55.306Z,992.52
2016-02-24T11:23:55.308Z,992.51
2016-02-24T11:24:55.295Z,992.5
2016-02-24T11:25:55.297Z,992.5
2016-02-24T11:26:55.300Z,992.45
2016-02-24T11:27:55.303Z,992.47
2016-02-24T11:28:55.306Z,992.48
2016-02-24T11:29:55.308Z,992.38
2016-02-24T11:30:55.310Z,992.38
2016-02-24T11:31:55.314Z,992.37
2016-02-24T11:32:55.301Z,992.33
2016-02-24T11:33:55.303Z,992.33
2016-02-24T11:34:55.307Z,992.37
2016-02-24T11:35:55.309Z,992.33
2016-02-24T11:36:55.312Z,992.34
2016-02-24T11:37:55.315Z,992.28
2016-02-24T11:38:55.301Z,992.27
2016-02-24T11:39:55.320Z,992.24
2016-02-24T11:40:55.291Z,992.25
2016-02-24T11:41:55.293Z,992.23
2016-02-24T11:42:55.296Z,992.23
2016-02-24T11:43:55.299Z,992.15
2016-02-24T11:44:55.301Z,992.16
2016-02-24T11:45:55.304Z,992.14
2016-02-24T11:46:55.307Z,992.1
2016-02-24T11:47:55.294Z,992.06
2016-02-24T11:48:55.298Z,992.03
2016-02-24T11:49:55.300Z,992
2016-02-24T11:50:55.286Z,992
2016-02-24T11:51:55.289Z,991.94
2016-02-24T11:52:55.292Z,991.93
2016-02-24T11:53:55.295Z,991.86
2016-02-24T11:54:55.297Z,991.83
2016-02-24T11:55:55.300Z,991.85
2016-02-24T11:56:55.287Z,991.84
2016-02-24T11:57:55.291Z,991.81
2016-02-24T11:58:55.293Z,991.79
2016-02-24T11:59:55.295Z,991.76
2016-02-24T12:00:55.298Z,991.74
2016-02-24T12:01:55.285Z,991.7
2016-02-24T12:02:55.304Z,991.66
2016-02-24T12:03:55.291Z,991.68
2016-02-24T12:04:55.295Z,991.67
2016-02-24T12:05:55.298Z,991.66
2016-02-24T12:06:55.284Z,991.64
2016-02-24T12:07:55.287Z,991.6
2016-02-24T12:08:55.290Z,991.61
2016-02-24T12:09:55.293Z,991.56
2016-02-24T12:10:55.295Z,991.53
2016-02-24T12:11:55.283Z,991.49
2016-02-24T12:12:55.286Z,991.46
2016-02-24T12:13:55.288Z,991.48
2016-02-24T12:14:55.291Z,991.44
2016-02-24T12:15:55.294Z,991.39
2016-02-24T12:16:55.296Z,991.38
2016-02-24T12:17:55.283Z,991.4
2016-02-24T12:18:55.286Z,991.39
2016-02-24T12:19:55.305Z,991.37
2016-02-24T12:20:55.291Z,991.33
2016-02-24T12:21:55.294Z,991.3
2016-02-24T12:22:55.313Z,991.35
2016-02-24T12:23:55.299Z,991.3
2016-02-24T12:24:55.286Z,991.31
2016-02-24T12:25:55.289Z,991.27
2016-02-24T12:26:55.291Z,991.3
2016-02-24T12:27:55.294Z,991.25
2016-02-24T12:28:55.282Z,991.27
2016-02-24T12:29:55.284Z,991.2
2016-02-24T12:30:55.287Z,991.19